My Meet Scores
Abigail Kendall, Farmington Valley Gymnastics and More - MyMeetScores.com
Top100 | Top Teams | Upcoming Meets | Completed Meets | Latest | Add Scores | Help| Support | Bookmark and Share

Abigail Kendall, Farmington Valley Gymnastics and More
Personal Bests
LevelVault BarsBeamFloorAA
38.8508.700 8.5508.65033.450
48.0007.400 8.2008.50031.100
XG8.9508.700 8.7009.15034.450
AllLevels8.4506.450 6.2508.55029.700
Meet Scores
Date Meet Team Session Level Division Vault Bars Beam Floor AA
2021-04-17 2021 XG,XP,XD CT State Championships Farmington Valley Gymnastics and More 3 XG Sr C 8.925 21T 7.700 37 0.000 38T 8.650 28 25.275 38
2020-03-07 Holiday Costume Cup 2020 Farmington Valley Gymnastics and More 07 XG Youth 8.850 3 8.700 7T 7.500 11 8.625 9T 33.675 11
2020-02-28 2020 February Flip Invitational Farmington Valley Gymnastics and More 4 XG 13 yr old 8.650 12T 8.275 19 7.150 19 9.025 14T 33.100 19
2020-02-15 2/15/20-2/16/20 CT FVG In house Valentine Inv Farmington Valley Gymnastics and More 4 XG Jr B 8.950 5 8.050 10 8.250 9 8.925 8 34.175 10
2020-02-09 Flip-Flop Gymnastics Local Meet Farmington Valley Gymnastics and More 2 XG 13 yrs. 8.200 29T 8.400 33T 8.700 26 9.150 15T 34.450 30
2020-01-24 2020 Kinetic Kids Invitational Farmington Valley Gymnastics and More 2 XG Sr A 8.250 10 8.200 10 6.700 11 8.750 10 31.900 10
2019-12-06 Rhode Island Invitational Farmington Valley Gymnastics and More SS2 XG intermedia 8.275 10 7.325 12 7.250 12 8.425 11 31.275 12
2019-02-01 State Level 4&5 Farmington Valley Gymnastics and More 1 4 12 Up 8.000 50 6.750 46 7.350 51 7.700 49 29.800 49T
2019-01-25 Kinetic Kids Invitational 2019 Farmington Valley Gymnastics and More 2 4 Sr B 6.700 9 7.400 8T 8.175 8 8.050 9 30.325 9
2019-01-11 New Year's Invitational Farmington Valley Gymnastics and More 2 4 Sr B 7.800 11 7.350 11 8.200 11 7.750 10 31.100 11
2018-12-08 American Gymnastics Invitational Farmington Valley Gymnastics and More 5 4 Sr B 7.500 11 6.500 11 7.850 11 8.500 11 30.350 11
2018-11-30 Rhode Island Invitational Farmington Valley Gymnastics and More SS2 4 Senior 7.800 12 7.200 11 7.100 12 8.175 9 30.275 11
2018-11-17 2018 Connecticut Judge's Cup Farmington Valley Gymnastics and More 6 4 11 yrs. 7.550 63 6.200 62 6.725 64 8.025 57 28.500 59
2018-11-10 2018 Turkey Tumble Farmington Valley Gymnastics and More 2 4 Sr C 7.050 11 7.000 9 7.300 11 7.550 10 28.900 10
2018-02-17 2/17,18/2018 CT Inhouse Valentine Invt Farmington Valley Gymnastics and More 1 3 Sr B 8.850 9T 8.700 8 6.500 12 8.200 9T 32.250 11
2018-02-09 2018 Hall Of Fame Classic Farmington Valley Gymnastics and More A4 3 Senior 8.150 14 8.500 9T 7.700 14 7.900 12 32.250 14
2018-01-12 DGS Invitational Farmington Valley Gymnastics and More 9B 3 10+ yrs. 8.500 14T 8.400 11T 8.550 4T 7.800 13 33.250 12
2017-11-30 Rhode Island Invitational Farmington Valley Gymnastics and More WS3 3 senior 8.200 9 8.500 6 8.250 7 8.500 5T 33.450 7
2017-11-10 2017 Phs Turkey Tumble Farmington Valley Gymnastics and More 4 3 Sr B 8.300 12 8.375 10 8.400 10 8.300 11 33.375 12
2017-03-25 2017 Connecticut Level 3 State Cup Farmington Valley Gymnastics and More 5 3 N/A 8.400 70T 7.800 57T 8.125 50T 8.400 49T 32.725 57
2016-12-02 Rhode Island Invitational Farmington Valley Gymnastics and More WS1 3 Senior 8.625 12 7.800 9 8.300 11 8.650 6T 33.375 9
2016-11-05 2016 Connecticut Judges Cup Farmington Valley Gymnastics and More 2 AllLevels AllAges 8.450 43T 6.450 41T 6.250 49 8.550 22T 29.700 46
Get your scores on
a t-shirt, pin, or hoodie